16 a 23/11 - Lluvias y tormentas NOA, Cuyo, Cordillera y Patagonia Norte - Actividad más aislada al este

Avatar de Usuario
Ernest
Mensajes: 11609
Registrado: Vie Jul 17, 2009 10:54 pm
Ubicación: Balvanera, CABA

16 a 23/11 - Lluvias y tormentas NOA, Cuyo, Cordillera y Patagonia Norte - Actividad más aislada al este

Mensaje por Ernest » Lun Nov 16, 2020 12:02 pm

Abrimos nuevo thread.
Despejado y ventoso mediodía en Once, agradable por la calle.
Superando los 23º en mi termómetro.
Última edición por Ernest el Mié Nov 18, 2020 3:27 pm, editado 2 veces en total.
Did you want to talk about the weather, or were you just making chitchat?

Twitter: @ErnestoMeteo

Avatar de Usuario
Diecha
Mensajes: 12388
Registrado: Jue Ago 25, 2011 9:31 pm
Ubicación: Lomas de Zamora

Re: 16 a 23/11 - Lluvias y tormentas NOA, Cuyo, Cordillera y Patagonia Norte - (Para variar) estable al este

Mensaje por Diecha » Lun Nov 16, 2020 12:04 pm

Río Cuarto:
Imagen
www.instagram.com/p/CHp-tCul8Bo/

- Río Cuarto 12 hs: SAOC 161500Z 36005KT 9999 TS SCT040TCU FEW045CB 27/12 Q1014 RMK CB OBS TO W/SW

Imagen

Avatar de Usuario
Ale de Castelar
Mensajes: 26806
Registrado: Sab Mar 03, 2012 12:25 pm
Ubicación: Caballito

Re: 16 a 23/11 - Lluvias y tormentas NOA, Cuyo, Cordillera y Patagonia Norte - (Para variar) estable al este

Mensaje por Ale de Castelar » Lun Nov 16, 2020 12:22 pm

Rio Cuarto
Adjuntos
FB_IMG_1605540066416.jpg
FB_IMG_1605540038627.jpg
FB_IMG_1605540016619.jpg
FB_IMG_1605540036405.jpg

Avatar de Usuario
Santi
Mensajes: 2003
Registrado: Dom Jul 28, 2013 8:34 pm
Ubicación: Buenos Aires
Contactar:

Re: 16 a 23/11 - Lluvias y tormentas NOA, Cuyo, Cordillera y Patagonia Norte - (Para variar) estable al este

Mensaje por Santi » Lun Nov 16, 2020 12:27 pm

Landspout en Córdoba..

MetRA - Meteorología de la República Argentina
Facebook: www.facebook.com/MetRAnoticias
Twitter: www.twitter.com/MetRAnoticias
Instagram: www.instagram.com/metranoticias


#MuerteAlasLineas (En común acuerdo con Fedex 8-))

Avatar de Usuario
Diecha
Mensajes: 12388
Registrado: Jue Ago 25, 2011 9:31 pm
Ubicación: Lomas de Zamora

Re: 16 a 23/11 - Lluvias y tormentas NOA, Cuyo, Cordillera y Patagonia Norte - (Para variar) estable al este

Mensaje por Diecha » Lun Nov 16, 2020 12:30 pm

Imagen

Imagen
Spoiler
Mostrar
Imagen
Imagen
Imagen
Imagen
Imagen
Imagen
Imagen
Imagen
Imagen
Última edición por Diecha el Lun Nov 16, 2020 7:22 pm, editado 2 veces en total.

Avatar de Usuario
Ale de Castelar
Mensajes: 26806
Registrado: Sab Mar 03, 2012 12:25 pm
Ubicación: Caballito

Re: 16 a 23/11 - Lluvias y tormentas NOA, Cuyo, Cordillera y Patagonia Norte - (Para variar) estable al este

Mensaje por Ale de Castelar » Lun Nov 16, 2020 12:50 pm

Sampacho


Avatar de Usuario
Diecha
Mensajes: 12388
Registrado: Jue Ago 25, 2011 9:31 pm
Ubicación: Lomas de Zamora

Re: 16 a 23/11 - Lluvias y tormentas NOA, Cuyo, Cordillera y Patagonia Norte - (Para variar) estable al este

Mensaje por Diecha » Lun Nov 16, 2020 1:21 pm

- Córdoba 13 hs: SACO 161600Z 05007KT 9999 FEW035 FEW045CB 28/08 Q1014 NOSIG RMK CB OBS TO NW-S
- Río Cuarto 13 hs: SAOC 161600Z 00000KT 9999 TS SCT040TCU FEW045CB 27/12 Q1014 RMK CB OBS TO VER/NW

Imagen
Imagen
Imagen
Última edición por Diecha el Lun Nov 16, 2020 3:17 pm, editado 1 vez en total.

Avatar de Usuario
Ale de Castelar
Mensajes: 26806
Registrado: Sab Mar 03, 2012 12:25 pm
Ubicación: Caballito

Re: 16 a 23/11 - Lluvias y tormentas NOA, Cuyo, Cordillera y Patagonia Norte - (Para variar) estable al este

Mensaje por Ale de Castelar » Lun Nov 16, 2020 2:03 pm

Villa Mercedes


Avatar de Usuario
Ale de Castelar
Mensajes: 26806
Registrado: Sab Mar 03, 2012 12:25 pm
Ubicación: Caballito

Re: 16 a 23/11 - Lluvias y tormentas NOA, Cuyo, Cordillera y Patagonia Norte - (Para variar) estable al este

Mensaje por Ale de Castelar » Lun Nov 16, 2020 2:30 pm

Se pudre en Mendoza


Avatar de Usuario
Diecha
Mensajes: 12388
Registrado: Jue Ago 25, 2011 9:31 pm
Ubicación: Lomas de Zamora

Re: 16 a 23/11 - Lluvias y tormentas NOA, Cuyo, Cordillera y Patagonia Norte - (Para variar) estable al este

Mensaje por Diecha » Lun Nov 16, 2020 2:38 pm


Responder